createdAt,value
2022-11-28T00:00:07.332Z,0
2022-11-28T00:03:08.645Z,0
2022-11-28T00:06:07.434Z,0
2022-11-28T00:09:07.335Z,0
2022-11-28T00:12:07.497Z,0
2022-11-28T00:15:07.356Z,0
2022-11-28T00:18:07.376Z,0
2022-11-28T00:21:07.329Z,0
2022-11-28T00:24:07.361Z,0
2022-11-28T00:27:07.361Z,0
2022-11-28T00:30:07.405Z,0
2022-11-28T00:33:07.398Z,0
2022-11-28T00:36:07.382Z,0
2022-11-28T00:39:07.289Z,0
2022-11-28T00:42:07.360Z,0
2022-11-28T00:45:07.356Z,0
2022-11-28T00:48:07.476Z,0
2022-11-28T00:51:07.323Z,0
2022-11-28T00:54:07.400Z,0
2022-11-28T00:57:07.411Z,0
2022-11-28T01:00:07.385Z,0
2022-11-28T01:03:07.312Z,0
2022-11-28T01:06:07.361Z,0
2022-11-28T01:09:07.740Z,0
2022-11-28T01:12:07.407Z,0
2022-11-28T01:15:07.367Z,0
2022-11-28T01:18:07.292Z,0
2022-11-28T01:21:07.432Z,0
2022-11-28T01:24:07.341Z,0
2022-11-28T01:27:07.311Z,0
2022-11-28T01:30:07.346Z,0
2022-11-28T01:33:07.346Z,0
2022-11-28T01:36:07.350Z,0
2022-11-28T01:39:07.348Z,0
2022-11-28T01:42:07.338Z,0
2022-11-28T01:45:07.381Z,0
2022-11-28T01:48:07.379Z,0
2022-11-28T01:51:07.344Z,0
2022-11-28T01:54:07.472Z,0
2022-11-28T01:57:07.351Z,0
2022-11-28T02:00:07.635Z,0
2022-11-28T02:03:07.376Z,0
2022-11-28T02:06:07.387Z,0
2022-11-28T02:09:07.422Z,0
2022-11-28T02:12:07.316Z,0
2022-11-28T02:15:07.397Z,0
2022-11-28T02:18:07.337Z,0
2022-11-28T02:21:07.467Z,0
2022-11-28T02:24:07.359Z,0
2022-11-28T02:27:07.406Z,0
2022-11-28T02:30:07.431Z,0
2022-11-28T02:33:07.339Z,0
2022-11-28T02:36:07.325Z,0
2022-11-28T02:39:07.388Z,0
2022-11-28T02:42:07.367Z,0
2022-11-28T02:45:07.458Z,0
2022-11-28T02:48:07.398Z,0
2022-11-28T02:51:07.367Z,0
2022-11-28T02:54:07.360Z,0
2022-11-28T02:57:07.511Z,0
2022-11-28T03:00:07.689Z,0
2022-11-28T03:03:07.360Z,0
2022-11-28T03:06:07.416Z,0
2022-11-28T03:09:07.350Z,0
2022-11-28T03:12:07.413Z,0
2022-11-28T03:15:07.545Z,0
2022-11-28T03:18:07.326Z,0
2022-11-28T03:21:07.309Z,0
2022-11-28T03:24:07.367Z,0
2022-11-28T03:27:07.352Z,0
2022-11-28T03:30:07.448Z,0
2022-11-28T03:33:07.425Z,0
2022-11-28T03:36:07.347Z,0
2022-11-28T03:39:07.352Z,0
2022-11-28T03:42:07.355Z,0
2022-11-28T03:45:07.397Z,0
2022-11-28T03:48:07.320Z,0
2022-11-28T03:51:07.392Z,0
2022-11-28T03:54:07.274Z,0
2022-11-28T03:57:07.436Z,0
2022-11-28T04:00:07.413Z,0
2022-11-28T04:03:07.743Z,0
2022-11-28T04:06:07.344Z,0
2022-11-28T04:09:14.131Z,0
2022-11-28T04:12:07.336Z,0
2022-11-28T04:15:07.346Z,0
2022-11-28T04:18:07.352Z,0
2022-11-28T04:21:07.352Z,0
2022-11-28T04:24:07.305Z,0
2022-11-28T04:27:07.341Z,0
2022-11-28T04:30:07.408Z,0
2022-11-28T04:33:07.393Z,0
2022-11-28T04:36:07.339Z,0
2022-11-28T04:39:07.426Z,0
2022-11-28T04:42:07.340Z,0
2022-11-28T04:45:07.382Z,0
2022-11-28T04:48:07.299Z,0
2022-11-28T04:51:07.365Z,0
2022-11-28T04:54:07.435Z,0
2022-11-28T04:57:07.376Z,0
2022-11-28T05:00:07.477Z,0
2022-11-28T05:03:07.349Z,0
2022-11-28T05:06:07.370Z,0
2022-11-28T05:09:07.319Z,0
2022-11-28T05:12:07.385Z,0
2022-11-28T05:15:07.355Z,0
2022-11-28T05:18:07.437Z,0
2022-11-28T05:21:07.360Z,0
2022-11-28T05:24:07.374Z,0
2022-11-28T05:27:07.393Z,0
2022-11-28T05:30:07.309Z,0
2022-11-28T05:33:07.352Z,0
2022-11-28T05:36:13.299Z,0
2022-11-28T05:39:07.453Z,0
2022-11-28T05:42:07.450Z,0
2022-11-28T05:45:07.873Z,0
2022-11-28T05:48:07.370Z,0
2022-11-28T05:51:07.367Z,0
2022-11-28T05:54:07.347Z,0
2022-11-28T05:57:07.351Z,0
2022-11-28T06:00:07.358Z,0
2022-11-28T06:03:08.623Z,0
2022-11-28T06:06:07.385Z,0
2022-11-28T06:09:07.374Z,0
2022-11-28T06:12:07.428Z,0
2022-11-28T06:18:07.481Z,0
2022-11-28T06:21:07.355Z,0
2022-11-28T06:24:07.378Z,3
2022-11-28T06:27:07.354Z,3
2022-11-28T06:30:07.372Z,3
2022-11-28T06:33:07.405Z,7
2022-11-28T06:36:07.492Z,13
2022-11-28T06:39:07.352Z,20
2022-11-28T06:42:07.336Z,30
2022-11-28T06:45:07.411Z,47
2022-11-28T06:48:07.349Z,73
2022-11-28T06:51:07.506Z,120
2022-11-28T06:54:07.370Z,203
2022-11-28T06:57:07.283Z,327
2022-11-28T07:00:07.440Z,470
2022-11-28T07:03:07.418Z,627
2022-11-28T07:06:07.442Z,787
2022-11-28T07:09:07.348Z,943
2022-11-28T07:12:07.400Z,1127
2022-11-28T07:15:07.386Z,1290
2022-11-28T07:18:07.397Z,1457
2022-11-28T07:21:07.463Z,1620
2022-11-28T07:24:07.566Z,1757
2022-11-28T07:27:07.429Z,1810
2022-11-28T07:30:07.391Z,1717
2022-11-28T07:33:07.382Z,1513
2022-11-28T07:36:07.358Z,1327
2022-11-28T07:39:07.386Z,1293
2022-11-28T07:42:07.417Z,1333
2022-11-28T07:45:07.403Z,1407
2022-11-28T07:48:07.438Z,1387
2022-11-28T07:51:07.520Z,1440
2022-11-28T07:54:07.405Z,1583
2022-11-28T07:57:20.349Z,1830
2022-11-28T08:00:07.492Z,1943
2022-11-28T08:03:07.535Z,2030
2022-11-28T08:06:10.014Z,2100
2022-11-28T08:09:07.373Z,2277
2022-11-28T08:12:07.464Z,2343
2022-11-28T08:15:07.378Z,2440
2022-11-28T08:18:07.511Z,2663
2022-11-28T08:21:07.405Z,3063
2022-11-28T08:24:07.463Z,3213
2022-11-28T08:27:07.467Z,3233
2022-11-28T08:30:07.629Z,3750
2022-11-28T08:33:07.537Z,3993
2022-11-28T08:36:07.586Z,3973
2022-11-28T08:39:31.083Z,3897
2022-11-28T08:42:07.519Z,3963
2022-11-28T08:45:07.434Z,4010
2022-11-28T08:48:07.549Z,3950
2022-11-28T08:51:07.504Z,3893
2022-11-28T08:54:07.755Z,3813
2022-11-28T08:57:07.514Z,3787
2022-11-28T09:00:07.632Z,3807
2022-11-28T09:03:07.570Z,3967
2022-11-28T09:06:07.843Z,4027
2022-11-28T09:09:07.517Z,3977
2022-11-28T09:12:07.480Z,3920
2022-11-28T09:15:07.618Z,3803
2022-11-28T09:18:07.497Z,3727
2022-11-28T09:21:07.589Z,3840
2022-11-28T09:24:07.471Z,4003
2022-11-28T09:27:07.496Z,3907
2022-11-28T09:30:07.530Z,3650
2022-11-28T09:33:07.479Z,3800
2022-11-28T09:36:07.615Z,4213
2022-11-28T09:39:07.440Z,4640
2022-11-28T09:42:07.452Z,4957
2022-11-28T09:45:07.458Z,5120
2022-11-28T09:48:07.460Z,5000
2022-11-28T09:51:08.185Z,4627
2022-11-28T09:54:07.500Z,4483
2022-11-28T09:57:07.453Z,4720
2022-11-28T10:00:07.702Z,5160
2022-11-28T10:03:07.720Z,5713
2022-11-28T10:06:07.571Z,6067
2022-11-28T10:09:07.427Z,6290
2022-11-28T10:12:07.432Z,6413
2022-11-28T10:15:07.435Z,6627
2022-11-28T10:18:07.533Z,6990
2022-11-28T10:21:07.382Z,7340
2022-11-28T10:24:07.526Z,7627
2022-11-28T10:27:07.500Z,7770
2022-11-28T10:30:07.447Z,7563
2022-11-28T10:33:07.504Z,7343
2022-11-28T10:36:07.442Z,7403
2022-11-28T10:39:13.499Z,7603
2022-11-28T10:42:07.554Z,7787
2022-11-28T10:45:07.430Z,7833
2022-11-28T10:48:45.730Z,7753
2022-11-28T10:51:07.400Z,7667
2022-11-28T10:54:07.435Z,7500
2022-11-28T10:57:07.466Z,7180
2022-11-28T11:00:07.621Z,6927
2022-11-28T11:03:07.481Z,6837
2022-11-28T11:06:07.491Z,6743
2022-11-28T11:09:07.453Z,6797
2022-11-28T11:12:07.509Z,7017
2022-11-28T11:15:07.553Z,7220
2022-11-28T11:18:07.418Z,7477
2022-11-28T11:21:07.464Z,7810
2022-11-28T11:24:07.397Z,7977
2022-11-28T11:27:07.432Z,7990
2022-11-28T11:30:07.571Z,7963
2022-11-28T11:33:07.419Z,7913
2022-11-28T11:36:07.433Z,7723
2022-11-28T11:39:07.475Z,7467
2022-11-28T11:42:07.646Z,7267
2022-11-28T11:45:07.416Z,7213
2022-11-28T11:48:07.480Z,7267
2022-11-28T11:51:07.404Z,7297
2022-11-28T11:54:07.463Z,7287
2022-11-28T11:57:40.793Z,7253
2022-11-28T12:00:07.600Z,7170
2022-11-28T12:03:08.113Z,7140
2022-11-28T12:06:21.865Z,7220
2022-11-28T12:09:07.541Z,7360
2022-11-28T12:12:07.428Z,7513
2022-11-28T12:15:07.440Z,7627
2022-11-28T12:18:07.529Z,7653
2022-11-28T12:21:07.717Z,7587
2022-11-28T12:24:07.488Z,7453
2022-11-28T12:27:07.449Z,7257
2022-11-28T12:30:07.502Z,7030
2022-11-28T12:33:07.503Z,6790
2022-11-28T12:36:10.237Z,6610
2022-11-28T12:39:07.514Z,6467
2022-11-28T12:42:07.471Z,6340
2022-11-28T12:45:07.590Z,6187
2022-11-28T12:48:07.647Z,6027
2022-11-28T12:51:07.632Z,5937
2022-11-28T12:54:07.631Z,5917
2022-11-28T12:57:07.600Z,5873
2022-11-28T13:00:19.363Z,5860
2022-11-28T13:03:07.838Z,5830
2022-11-28T13:06:07.499Z,5727
2022-11-28T13:09:07.521Z,5580
2022-11-28T13:12:07.557Z,5500
2022-11-28T13:15:07.495Z,5473
2022-11-28T13:18:07.520Z,5380
2022-11-28T13:21:07.443Z,5190
2022-11-28T13:24:14.262Z,4960
2022-11-28T13:27:07.582Z,4743
2022-11-28T13:30:07.634Z,4493
2022-11-28T13:33:07.435Z,4247
2022-11-28T13:36:08.313Z,4047
2022-11-28T13:39:21.222Z,3850
2022-11-28T13:48:07.583Z,3143
2022-11-28T13:51:19.953Z,3000
2022-11-28T13:54:07.450Z,2837
2022-11-28T13:57:07.613Z,2613
2022-11-28T14:00:07.620Z,2407
2022-11-28T14:03:08.017Z,2263
2022-11-28T14:06:07.497Z,2147
2022-11-28T14:09:07.546Z,2037
2022-11-28T14:12:07.742Z,1933
2022-11-28T14:15:08.912Z,1850
2022-11-28T14:18:54.777Z,1740
2022-11-28T14:21:07.470Z,1627
2022-11-28T14:24:07.464Z,1520
2022-11-28T14:27:07.437Z,1390
2022-11-28T14:30:07.534Z,1223
2022-11-28T14:33:07.541Z,1050
2022-11-28T14:36:07.417Z,910
2022-11-28T14:39:07.555Z,823
2022-11-28T14:42:07.501Z,760
2022-11-28T14:45:17.814Z,687
2022-11-28T14:48:07.511Z,603
2022-11-28T14:51:09.275Z,540
2022-11-28T14:54:07.493Z,507
2022-11-28T14:57:07.549Z,477
2022-11-28T15:00:07.530Z,427
2022-11-28T15:03:07.817Z,347
2022-11-28T15:06:07.430Z,260
2022-11-28T15:09:07.478Z,203
2022-11-28T15:12:07.470Z,163
2022-11-28T15:15:07.398Z,133
2022-11-28T15:18:07.444Z,107
2022-11-28T15:21:07.341Z,80
2022-11-28T15:24:07.384Z,60
2022-11-28T15:27:07.359Z,40
2022-11-28T15:30:07.459Z,27
2022-11-28T15:33:07.381Z,17
2022-11-28T15:36:07.336Z,10
2022-11-28T15:39:07.461Z,7
2022-11-28T15:42:07.355Z,3
2022-11-28T15:45:07.387Z,3
2022-11-28T15:48:07.382Z,0
2022-11-28T15:51:07.324Z,0
2022-11-28T15:54:10.656Z,0
2022-11-28T15:57:07.387Z,0
2022-11-28T16:00:07.601Z,0
2022-11-28T16:03:07.380Z,0
2022-11-28T16:06:07.352Z,0
2022-11-28T16:09:07.433Z,0
2022-11-28T16:12:07.344Z,0
2022-11-28T16:15:07.343Z,0
2022-11-28T16:18:07.349Z,0
2022-11-28T16:21:07.330Z,0
2022-11-28T16:24:07.342Z,0
2022-11-28T16:27:07.368Z,0
2022-11-28T16:30:07.449Z,0
2022-11-28T16:33:07.355Z,0
2022-11-28T16:36:07.344Z,0
2022-11-28T16:39:07.362Z,0
2022-11-28T16:42:07.380Z,0
2022-11-28T16:45:07.443Z,0
2022-11-28T16:48:07.490Z,0
2022-11-28T16:51:07.413Z,0
2022-11-28T16:54:07.579Z,0
2022-11-28T16:57:07.348Z,0
2022-11-28T17:00:07.362Z,0
2022-11-28T17:03:12.968Z,0
2022-11-28T17:06:07.409Z,0
2022-11-28T17:09:07.419Z,0
2022-11-28T17:12:07.357Z,0
2022-11-28T17:15:07.330Z,0
2022-11-28T17:18:07.381Z,0
2022-11-28T17:21:07.379Z,0
2022-11-28T17:24:07.314Z,0
2022-11-28T17:27:07.450Z,0
2022-11-28T17:30:07.372Z,0
2022-11-28T17:33:07.380Z,0
2022-11-28T17:36:07.370Z,0
2022-11-28T17:39:12.106Z,0
2022-11-28T17:42:07.330Z,0
2022-11-28T17:45:07.469Z,0
2022-11-28T17:48:07.358Z,0
2022-11-28T17:51:07.472Z,0
2022-11-28T17:54:07.459Z,0
2022-11-28T17:57:07.397Z,0
2022-11-28T18:00:07.541Z,0
2022-11-28T18:03:07.352Z,0
2022-11-28T18:06:07.922Z,0
2022-11-28T18:09:14.607Z,0
2022-11-28T18:12:07.372Z,0
2022-11-28T18:15:07.334Z,0
2022-11-28T18:18:07.290Z,0
2022-11-28T18:21:07.367Z,0
2022-11-28T18:24:07.389Z,0
2022-11-28T18:27:07.382Z,0
2022-11-28T18:30:07.419Z,0
2022-11-28T18:33:07.414Z,0
2022-11-28T18:36:07.319Z,0
2022-11-28T18:39:07.335Z,0
2022-11-28T18:42:07.411Z,0
2022-11-28T18:45:07.354Z,0
2022-11-28T18:48:07.569Z,0
2022-11-28T18:51:07.321Z,0
2022-11-28T18:54:07.459Z,0
2022-11-28T18:57:07.365Z,0
2022-11-28T19:00:08.029Z,0
2022-11-28T19:03:07.453Z,0
2022-11-28T19:06:07.372Z,0
2022-11-28T19:09:07.343Z,0
2022-11-28T19:12:07.506Z,0
2022-11-28T19:15:09.532Z,0
2022-11-28T19:18:07.461Z,0
2022-11-28T19:21:07.377Z,0
2022-11-28T19:24:07.331Z,0
2022-11-28T19:27:14.620Z,0
2022-11-28T19:30:07.389Z,0
2022-11-28T19:33:07.384Z,0
2022-11-28T19:36:07.369Z,0
2022-11-28T19:39:07.330Z,0
2022-11-28T19:42:07.396Z,0
2022-11-28T19:45:07.417Z,0
2022-11-28T19:48:07.327Z,0
2022-11-28T19:51:07.340Z,0
2022-11-28T19:54:11.260Z,0
2022-11-28T19:57:07.306Z,0
2022-11-28T20:00:07.336Z,0
2022-11-28T20:03:07.354Z,0
2022-11-28T20:06:07.379Z,0
2022-11-28T20:09:07.369Z,0
2022-11-28T20:12:07.361Z,0
2022-11-28T20:15:07.352Z,0
2022-11-28T20:18:07.352Z,0
2022-11-28T20:21:07.409Z,0
2022-11-28T20:24:07.441Z,0
2022-11-28T20:27:07.363Z,0
2022-11-28T20:30:07.476Z,0
2022-11-28T20:33:07.316Z,0
2022-11-28T20:36:07.424Z,0
2022-11-28T20:39:07.345Z,0
2022-11-28T20:42:07.348Z,0
2022-11-28T20:45:07.391Z,0
2022-11-28T20:48:07.357Z,0
2022-11-28T20:51:07.333Z,0
2022-11-28T20:54:07.370Z,0
2022-11-28T20:57:29.366Z,0
2022-11-28T21:00:07.447Z,0
2022-11-28T21:03:07.339Z,0
2022-11-28T21:06:08.398Z,0
2022-11-28T21:09:07.362Z,0
2022-11-28T21:12:07.401Z,0
2022-11-28T21:15:07.356Z,0
2022-11-28T21:18:07.357Z,0
2022-11-28T21:21:07.347Z,0
2022-11-28T21:24:07.363Z,0
2022-11-28T21:27:07.350Z,0
2022-11-28T21:30:07.393Z,0
2022-11-28T21:33:07.395Z,0
2022-11-28T21:36:07.314Z,0
2022-11-28T21:39:07.354Z,0
2022-11-28T21:42:07.404Z,0
2022-11-28T21:45:07.338Z,0
2022-11-28T21:48:07.459Z,0
2022-11-28T21:51:07.476Z,0
2022-11-28T21:54:07.416Z,0
2022-11-28T21:57:07.373Z,0
2022-11-28T22:00:07.389Z,0
2022-11-28T22:03:19.005Z,0
2022-11-28T22:06:07.377Z,0
2022-11-28T22:09:16.234Z,0
2022-11-28T22:12:07.439Z,0
2022-11-28T22:15:07.423Z,0
2022-11-28T22:18:07.348Z,0
2022-11-28T22:21:53.991Z,0
2022-11-28T22:24:08.274Z,0
2022-11-28T22:27:07.542Z,0
2022-11-28T22:30:07.379Z,0
2022-11-28T22:33:07.383Z,0
2022-11-28T22:36:07.355Z,0
2022-11-28T22:39:07.356Z,0
2022-11-28T22:42:07.384Z,0
2022-11-28T22:45:07.342Z,0
2022-11-28T22:48:07.370Z,0
2022-11-28T22:51:07.352Z,0
2022-11-28T22:54:07.499Z,0
2022-11-28T22:57:07.379Z,0
2022-11-28T23:00:08.306Z,0
2022-11-28T23:03:07.938Z,0
2022-11-28T23:06:07.335Z,0
2022-11-28T23:09:07.449Z,0
2022-11-28T23:12:07.376Z,0
2022-11-28T23:15:07.386Z,0
2022-11-28T23:18:07.377Z,0
2022-11-28T23:21:07.405Z,0
2022-11-28T23:24:07.376Z,0
2022-11-28T23:27:07.354Z,0
2022-11-28T23:30:07.377Z,0
2022-11-28T23:33:07.344Z,0
2022-11-28T23:36:07.322Z,0
2022-11-28T23:39:07.316Z,0
2022-11-28T23:42:07.373Z,0
2022-11-28T23:45:07.362Z,0
2022-11-28T23:48:07.342Z,0
2022-11-28T23:51:07.324Z,0
2022-11-28T23:54:07.366Z,0
2022-11-28T23:57:07.376Z,0
